Time;durP1;ratioP1;P1;durP2;ratioP2;P2;SDS_P1;SDS_P2;PMS_P1;PMS_P2;Temp;Humidity;BMP_temperature;BMP_pressure;BME280_temperature;BME280_humidity;BME280_pressure;Samples;Min_cycle;Max_cycle;Signal;HPM_P1;HPM_P2
2023/01/21 00:00:48;;;;;;;28.27;13.48;;;;;;;0.42;66.81;99511.81;5225792;28;20565;-69
2023/01/21 00:03:39;;;;;;;28.25;13.95;;;;;;;0.41;66.05;99515.34;5222363;28;20052;-68
2023/01/21 00:06:29;;;;;;;30.60;13.57;;;;;;;0.59;65.27;99521.50;5222703;28;20056;-69
2023/01/21 00:09:19;;;;;;;30.27;13.88;;;;;;;0.58;64.78;99514.59;5225969;28;20116;-69
2023/01/21 00:12:10;;;;;;;34.55;13.52;;;;;;;0.69;64.10;99528.00;5211096;28;20422;-69
2023/01/21 00:14:59;;;;;;;27.70;12.40;;;;;;;0.51;63.27;99501.91;5224986;28;20107;-69
2023/01/21 00:17:53;;;;;;;28.30;12.95;;;;;;;0.83;63.65;99526.53;5265811;22;20051;-71
2023/01/21 00:20:44;;;;;;;30.30;13.43;;;;;;;1.01;62.20;99509.19;5246071;28;20540;-75
2023/01/21 00:23:35;;;;;;;28.92;13.02;;;;;;;1.16;62.39;99539.81;5247072;28;20055;-72
2023/01/21 00:26:25;;;;;;;30.85;12.90;;;;;;;1.27;62.80;99536.72;5233478;28;20098;-71
2023/01/21 00:29:16;;;;;;;24.48;12.18;;;;;;;1.28;62.83;99543.63;5244659;28;20162;-71
2023/01/21 00:32:06;;;;;;;28.92;13.23;;;;;;;0.84;62.94;99510.81;5248523;28;20406;-71
2023/01/21 00:34:57;;;;;;;43.33;14.48;;;;;;;1.06;62.90;99530.69;5246245;28;20056;-71
2023/01/21 00:37:50;;;;;;;27.77;12.90;;;;;;;0.83;63.71;99531.75;5264904;28;20070;-72
2023/01/21 00:40:41;;;;;;;30.80;13.50;;;;;;;0.62;63.68;99526.56;5265702;28;20048;-71
2023/01/21 00:43:31;;;;;;;22.83;12.63;;;;;;;0.36;65.55;99529.47;5250331;28;20130;-71
2023/01/21 00:46:22;;;;;;;27.92;13.00;;;;;;;0.58;64.53;99547.66;5245941;28;20510;-71
2023/01/21 00:49:12;;;;;;;25.70;13.45;;;;;;;0.77;64.00;99543.34;5248963;28;20059;-70
2023/01/21 00:52:02;;;;;;;25.90;12.43;;;;;;;0.94;63.12;99545.19;5249291;28;20078;-71
2023/01/21 00:54:53;;;;;;;28.50;13.75;;;;;;;0.89;63.06;99536.69;5256545;28;20052;-72
2023/01/21 00:57:42;;;;;;;27.38;13.35;;;;;;;1.18;62.61;99543.19;5253784;28;20044;-74
2023/01/21 01:00:33;;;;;;;31.67;13.40;;;;;;;1.17;63.49;99549.34;5251062;28;20055;-72
2023/01/21 01:03:23;;;;;;;27.00;13.05;;;;;;;1.15;63.85;99552.00;5267302;28;20047;-71
2023/01/21 01:06:16;;;;;;;35.78;14.40;;;;;;;1.17;63.10;99549.34;5250877;28;20054;-71
2023/01/21 01:09:07;;;;;;;32.35;13.40;;;;;;;0.93;63.93;99544.34;5266233;28;20059;-72
2023/01/21 01:11:57;;;;;;;32.45;13.57;;;;;;;1.18;62.91;99558.88;5259681;28;20047;-73
2023/01/21 01:14:47;;;;;;;31.15;13.40;;;;;;;1.18;62.96;99558.88;5241632;28;20114;-73
2023/01/21 01:17:37;;;;;;;28.83;14.80;;;;;;;1.06;63.00;99556.81;5257777;28;20044;-74
2023/01/21 01:20:27;;;;;;;31.77;13.50;;;;;;;1.00;63.59;99544.06;5266450;28;20052;-71
2023/01/21 01:23:17;;;;;;;35.05;14.32;;;;;;;0.85;63.46;99533.38;5254251;28;20675;-71
2023/01/21 01:26:13;;;;;;;29.20;13.63;;;;;;;1.13;63.45;99568.69;5246213;28;20058;-73
2023/01/21 01:29:04;;;;;;;26.55;13.70;;;;;;;1.01;63.86;99577.09;5244967;28;20060;-72
2023/01/21 01:31:54;;;;;;;32.13;14.20;;;;;;;0.96;63.62;99574.69;5243656;28;20076;-71
2023/01/21 01:34:45;;;;;;;31.95;14.07;;;;;;;0.91;63.74;99574.03;5238280;28;20052;-73
2023/01/21 01:37:35;;;;;;;31.20;14.75;;;;;;;0.93;63.73;99580.88;5254787;28;20508;-72
2023/01/21 01:40:24;;;;;;;30.05;13.75;;;;;;;0.70;64.78;99581.06;5263397;28;20055;-72
2023/01/21 01:43:17;;;;;;;28.63;13.95;;;;;;;0.76;64.26;99578.16;5250790;28;20048;-72
2023/01/21 01:46:07;;;;;;;30.00;13.57;;;;;;;0.61;64.43;99574.47;5227844;28;20059;-71
2023/01/21 01:49:10;;;;;;;34.58;14.55;;;;;;;0.61;64.44;99584.06;5247974;28;20077;-71
2023/01/21 01:52:03;;;;;;;27.13;13.55;;;;;;;0.48;65.04;99575.91;5244855;28;20604;-72
2023/01/21 01:54:59;;;;;;;31.60;14.67;;;;;;;0.39;63.72;99584.97;5265717;28;20054;-72
2023/01/21 01:57:54;;;;;;;30.77;13.60;;;;;;;0.26;64.18;99573.38;5244607;28;20059;-75
2023/01/21 02:00:44;;;;;;;38.75;13.70;;;;;;;0.31;64.17;99600.13;5226127;28;20057;-71
2023/01/21 02:03:44;;;;;;;25.70;13.30;;;;;;;0.09;65.17;99597.56;5238472;28;20194;-72
2023/01/21 02:06:37;;;;;;;29.00;13.77;;;;;;;0.02;64.79;99603.94;5253056;28;20060;-72
2023/01/21 02:09:28;;;;;;;29.48;13.43;;;;;;;0.06;65.36;99604.66;5244889;28;20064;-71
2023/01/21 02:12:19;;;;;;;25.92;12.88;;;;;;;-0.08;65.38;99608.66;5245218;28;20058;-71
2023/01/21 02:15:10;;;;;;;30.17;14.07;;;;;;;-0.13;65.04;99608.03;5242641;28;20055;-71
2023/01/21 02:18:15;;;;;;;27.90;13.43;;;;;;;-0.26;65.01;99609.41;5223366;28;20059;-71
2023/01/21 02:21:08;;;;;;;28.40;13.00;;;;;;;-0.30;65.13;99613.03;5240528;28;20813;-73
2023/01/21 02:24:28;;;;;;;25.65;13.23;;;;;;;-0.35;65.26;99612.38;5265552;28;20188;-71
2023/01/21 02:27:41;;;;;;;28.67;13.25;;;;;;;-0.42;65.16;99621.34;5244333;28;20049;-71
2023/01/21 02:30:49;;;;;;;26.73;12.90;;;;;;;-0.52;64.76;99621.69;5254898;28;20090;-72
2023/01/21 02:33:49;;;;;;;30.63;13.50;;;;;;;-0.63;64.81;99616.06;5257099;28;20052;-71
2023/01/21 02:37:08;;;;;;;29.35;13.27;;;;;;;-0.65;64.79;99623.06;5242874;28;20058;-73
2023/01/21 02:40:19;;;;;;;26.48;12.52;;;;;;;-0.78;65.47;99624.44;5253396;28;20068;-71
2023/01/21 02:43:45;;;;;;;25.80;13.60;;;;;;;-0.82;66.43;99617.66;5254427;28;20596;-74
2023/01/21 02:46:44;;;;;;;31.13;13.25;;;;;;;-0.85;66.83;99623.81;5252306;28;20133;-71
2023/01/21 02:50:11;;;;;;;28.70;13.55;;;;;;;-0.92;65.89;99637.97;5255618;28;20551;-71
2023/01/21 02:53:03;;;;;;;28.00;13.15;;;;;;;-1.03;67.19;99632.28;5229729;28;20517;-71
2023/01/21 02:55:56;;;;;;;26.08;13.30;;;;;;;-1.01;66.75;99639.16;5243928;28;20107;-73
2023/01/21 02:58:53;;;;;;;18.30;10.00;;;;;;;-1.08;67.44;99655.03;5247888;28;20055;-71
2023/01/21 03:02:02;;;;;;;29.33;12.80;;;;;;;-1.09;67.34;99650.72;5243126;28;20726;-71
2023/01/21 03:05:24;;;;;;;32.33;13.45;;;;;;;-1.00;67.21;99650.41;5244971;28;20056;-73
2023/01/21 03:08:26;;;;;;;34.47;15.32;;;;;;;-0.98;67.35;99652.03;5240875;28;20445;-72
2023/01/21 03:11:19;;;;;;;28.95;14.13;;;;;;;-1.03;67.57;99643.53;5245863;28;20063;-72
2023/01/21 03:18:05;;;;;;;36.88;15.18;;;;;;;-1.09;67.63;99654.19;5245216;28;20056;-71
2023/01/21 03:21:02;;;;;;;32.42;14.65;;;;;;;-1.39;68.01;99637.03;5244223;28;20409;-71
2023/01/21 03:23:54;;;;;;;33.65;14.55;;;;;;;-1.34;67.53;99655.94;5261354;28;20044;-72
2023/01/21 03:26:49;;;;;;;27.50;13.35;;;;;;;-1.31;66.68;99655.84;5237402;28;20129;-75
2023/01/21 03:29:41;;;;;;;29.35;14.07;;;;;;;-1.37;66.89;99653.44;5233010;28;20075;-71
2023/01/21 03:32:33;;;;;;;34.70;14.18;;;;;;;-1.40;67.38;99663.97;5253384;28;20051;-71
2023/01/21 03:35:32;;;;;;;29.55;14.02;;;;;;;-1.52;67.80;99653.09;5268058;28;20413;-72
2023/01/21 03:38:35;;;;;;;34.85;15.55;;;;;;;-1.39;66.93;99668.25;5267151;28;20422;-71
2023/01/21 03:41:32;;;;;;;35.00;14.02;;;;;;;-1.35;67.57;99668.13;5244001;28;20247;-71
2023/01/21 03:44:24;;;;;;;34.60;14.32;;;;;;;-1.45;67.98;99675.38;5248465;28;20671;-71
2023/01/21 03:47:35;;;;;;;34.10;14.38;;;;;;;-1.52;66.50;99673.88;5248106;28;20049;-72
2023/01/21 03:50:34;;;;;;;33.42;14.57;;;;;;;-1.59;67.29;99671.53;5249560;28;20450;-73
2023/01/21 03:53:24;;;;;;;30.52;14.73;;;;;;;-1.53;67.53;99669.56;5263533;28;20047;-73
2023/01/21 03:56:15;;;;;;;30.67;14.95;;;;;;;-1.63;67.99;99644.78;5257258;28;20083;-72
2023/01/21 03:59:05;;;;;;;32.10;14.30;;;;;;;-1.50;68.00;99674.66;5244961;28;20577;-72
2023/01/21 04:01:55;;;;;;;33.55;14.93;;;;;;;-1.71;67.48;99658.03;5259598;28;20134;-72
2023/01/21 04:04:46;;;;;;;29.55;13.43;;;;;;;-1.71;68.70;99675.41;5262497;28;20059;-72
2023/01/21 04:07:36;;;;;;;31.80;14.57;;;;;;;-1.63;68.50;99685.53;5246626;28;20052;-73
2023/01/21 04:10:27;;;;;;;35.60;15.18;;;;;;;-1.62;68.07;99679.44;5246782;28;20055;-72
2023/01/21 04:13:17;;;;;;;34.88;15.60;;;;;;;-1.68;68.56;99683.94;5258026;28;20044;-72
2023/01/21 04:16:08;;;;;;;30.70;14.27;;;;;;;-1.83;67.83;99671.44;5262908;28;20050;-72
2023/01/21 04:18:58;;;;;;;30.65;15.02;;;;;;;-1.77;67.34;99691.19;5267213;28;20062;-72
2023/01/21 04:21:47;;;;;;;30.58;14.90;;;;;;;-1.74;67.56;99691.94;5254777;28;20060;-71
2023/01/21 04:24:38;;;;;;;32.08;15.07;;;;;;;-1.81;67.15;99700.84;5258346;28;20060;-72
2023/01/21 04:27:28;;;;;;;30.70;14.07;;;;;;;-1.90;67.77;99699.38;5244492;28;20413;-71
2023/01/21 04:30:18;;;;;;;31.15;14.40;;;;;;;-1.88;68.08;99690.69;5262484;28;20094;-71
2023/01/21 04:33:09;;;;;;;33.22;15.07;;;;;;;-1.94;68.14;99695.16;5240769;28;20113;-70
2023/01/21 04:35:59;;;;;;;30.35;15.60;;;;;;;-1.84;69.04;99700.94;5255621;28;20146;-72
2023/01/21 04:38:50;;;;;;;37.47;15.93;;;;;;;-1.69;69.98;99692.66;5263250;28;20079;-70
2023/01/21 04:41:40;;;;;;;31.30;15.80;;;;;;;-1.66;69.40;99710.75;5245001;28;20053;-73
2023/01/21 04:44:30;;;;;;;32.22;15.88;;;;;;;-1.95;68.75;99685.69;5248415;28;20107;-73
2023/01/21 04:47:20;;;;;;;33.28;15.48;;;;;;;-2.06;68.19;99674.75;5239302;28;20136;-71
2023/01/21 04:50:11;;;;;;;32.58;14.93;;;;;;;-1.90;69.59;99714.97;5253772;28;20201;-72
2023/01/21 04:53:01;;;;;;;37.28;16.15;;;;;;;-1.90;69.16;99707.16;5249779;28;20109;-71
2023/01/21 04:55:51;;;;;;;33.08;14.93;;;;;;;-2.01;69.20;99698.88;5253481;28;20094;-72
2023/01/21 04:58:41;;;;;;;30.63;15.27;;;;;;;-2.08;69.06;99705.16;5244052;28;20051;-71
2023/01/21 05:01:32;;;;;;;33.85;16.35;;;;;;;-2.09;69.65;99700.84;5244395;28;20464;-70
2023/01/21 05:04:21;;;;;;;35.28;16.00;;;;;;;-1.91;69.48;99712.44;5246494;28;20048;-71
2023/01/21 05:07:12;;;;;;;33.05;15.68;;;;;;;-2.06;69.04;99700.75;5257357;28;20053;-70
2023/01/21 05:10:02;;;;;;;34.70;16.48;;;;;;;-2.02;69.08;99712.78;5245746;28;20091;-70
2023/01/21 05:12:52;;;;;;;38.88;16.67;;;;;;;-2.24;68.92;99709.13;5244799;28;20150;-69
2023/01/21 05:15:43;;;;;;;35.40;16.77;;;;;;;-2.06;69.20;99713.75;5245360;28;20098;-69
2023/01/21 05:18:33;;;;;;;43.83;17.75;;;;;;;-2.08;69.55;99728.53;5274789;28;20072;-69
2023/01/21 05:21:23;;;;;;;39.92;17.52;;;;;;;-1.98;69.31;99721.31;5254246;28;20142;-69
2023/01/21 05:24:13;;;;;;;51.92;20.55;;;;;;;-1.96;69.89;99719.50;5249732;28;20048;-70
2023/01/21 05:27:03;;;;;;;47.20;19.90;;;;;;;-1.81;69.46;99731.19;5232633;28;20047;-69
2023/01/21 05:29:53;;;;;;;44.35;20.60;;;;;;;-1.87;69.48;99739.19;5240856;28;20055;-71
2023/01/21 05:32:43;;;;;;;54.25;22.25;;;;;;;-1.87;69.83;99742.63;5233378;28;20422;-70
2023/01/21 05:35:33;;;;;;;56.20;22.45;;;;;;;-1.97;69.49;99751.59;5266372;28;20111;-73
2023/01/21 05:38:24;;;;;;;61.75;24.95;;;;;;;-1.92;69.27;99737.56;5247250;28;20109;-73
2023/01/21 05:41:14;;;;;;;65.68;25.20;;;;;;;-1.90;69.53;99745.31;5245315;28;20141;-73
2023/01/21 05:44:04;;;;;;;62.97;26.60;;;;;;;-1.80;69.26;99751.06;5247871;28;20449;-73
2023/01/21 05:46:54;;;;;;;64.68;26.08;;;;;;;-1.83;68.25;99746.81;5234232;28;20521;-71
2023/01/21 05:49:44;;;;;;;73.22;26.13;;;;;;;-2.00;68.94;99744.75;5264891;28;20059;-72
2023/01/21 05:52:35;;;;;;;68.03;25.02;;;;;;;-2.11;69.03;99758.97;5258590;28;20046;-71
2023/01/21 05:55:25;;;;;;;59.17;24.58;;;;;;;-1.99;68.92;99763.78;5251015;28;20044;-72
2023/01/21 05:58:15;;;;;;;65.68;25.65;;;;;;;-2.01;68.80;99750.00;5244709;28;20044;-71
2023/01/21 06:01:05;;;;;;;68.15;24.88;;;;;;;-2.16;68.79;99761.69;5236344;28;20047;-71
2023/01/21 06:03:55;;;;;;;63.85;23.55;;;;;;;-2.13;69.01;99761.59;5251025;28;20075;-72
2023/01/21 06:06:46;;;;;;;65.38;23.77;;;;;;;-2.05;69.08;99757.03;5232226;28;20059;-72
2023/01/21 06:09:36;;;;;;;56.63;23.13;;;;;;;-2.13;68.28;99766.78;5253549;28;20453;-72
2023/01/21 06:12:26;;;;;;;60.55;22.77;;;;;;;-2.22;68.56;99770.53;5251893;28;20045;-71
2023/01/21 06:15:16;;;;;;;53.00;22.20;;;;;;;-2.30;68.99;99769.03;5252021;28;20109;-72
2023/01/21 06:18:07;;;;;;;67.28;24.40;;;;;;;-2.36;68.79;99763.09;5250396;28;20052;-71
2023/01/21 06:20:59;;;;;;;58.60;21.75;;;;;;;-2.26;69.00;99778.44;5245842;28;20051;-68
2023/01/21 06:23:49;;;;;;;58.13;22.65;;;;;;;-2.26;68.54;99779.28;5232672;28;20051;-68
2023/01/21 06:26:39;;;;;;;52.72;20.90;;;;;;;-2.38;68.33;99787.44;5241342;28;20055;-68
2023/01/21 06:29:29;;;;;;;60.13;22.80;;;;;;;-2.48;68.92;99780.81;5245174;28;20041;-68
2023/01/21 06:32:19;;;;;;;57.72;22.00;;;;;;;-2.39;69.00;99796.97;5257322;28;20509;-68
2023/01/21 06:35:09;;;;;;;53.90;21.35;;;;;;;-2.39;68.44;99799.56;5239039;28;20063;-69
2023/01/21 06:38:00;;;;;;;59.38;22.45;;;;;;;-2.52;68.38;99776.56;5251093;28;20185;-68
2023/01/21 06:40:50;;;;;;;63.95;21.40;;;;;;;-2.36;68.80;99804.66;5248043;28;20131;-69
2023/01/21 06:43:40;;;;;;;62.45;20.90;;;;;;;-2.40;68.89;99791.81;5251868;28;20121;-69
2023/01/21 06:46:30;;;;;;;52.72;20.73;;;;;;;-2.45;68.81;99807.53;5244880;28;20065;-68
2023/01/21 06:49:20;;;;;;;53.30;21.67;;;;;;;-2.46;68.67;99811.00;5256330;28;20079;-69
2023/01/21 06:52:10;;;;;;;62.25;22.08;;;;;;;-2.45;68.79;99820.53;5256108;28;20529;-68
2023/01/21 06:55:00;;;;;;;51.30;20.75;;;;;;;-2.53;68.67;99827.66;5231679;28;20616;-68
2023/01/21 06:57:50;;;;;;;52.97;20.83;;;;;;;-2.50;68.13;99830.19;5251610;28;20421;-68
2023/01/21 07:00:41;;;;;;;54.88;21.20;;;;;;;-2.53;68.84;99830.25;5247108;28;20059;-68
2023/01/21 07:03:31;;;;;;;48.22;19.38;;;;;;;-2.51;68.53;99832.81;5260672;28;20136;-68
2023/01/21 07:06:21;;;;;;;58.67;20.67;;;;;;;-2.56;68.47;99842.47;5249125;28;20114;-69
2023/01/21 07:09:11;;;;;;;53.58;20.45;;;;;;;-2.55;68.85;99849.34;5232942;28;20043;-69
2023/01/21 07:12:01;;;;;;;49.47;20.75;;;;;;;-2.48;68.10;99849.19;5240768;28;20548;-68
2023/01/21 07:14:51;;;;;;;50.28;20.23;;;;;;;-2.56;68.27;99858.91;5245719;28;20658;-68
2023/01/21 07:17:41;;;;;;;54.33;21.02;;;;;;;-2.57;68.62;99858.94;5250102;28;20048;-70
2023/01/21 07:20:32;;;;;;;58.10;22.17;;;;;;;-2.90;68.38;99796.63;5258375;28;20055;-69
2023/01/21 07:23:23;;;;;;;51.65;19.83;;;;;;;-2.44;69.03;99868.97;5245773;28;20041;-68
2023/01/21 07:26:13;;;;;;;53.15;20.92;;;;;;;-2.20;69.41;99877.00;5229556;28;20071;-69
2023/01/21 07:29:05;;;;;;;62.67;21.90;;;;;;;-2.08;68.25;99881.00;5244740;28;20127;-70
2023/01/21 07:31:55;;;;;;;59.97;22.52;;;;;;;-2.17;68.98;99867.34;5239344;28;20495;-70
2023/01/21 07:34:46;;;;;;;57.80;20.55;;;;;;;-1.96;69.02;99880.63;5258377;28;20055;-71
2023/01/21 07:37:36;;;;;;;52.83;22.00;;;;;;;-1.98;69.27;99890.25;5231378;28;20048;-70
2023/01/21 07:40:26;;;;;;;61.53;22.00;;;;;;;-1.99;69.29;99883.31;5258541;28;20058;-71
2023/01/21 07:43:17;;;;;;;60.88;21.10;;;;;;;-1.90;68.73;99885.66;5236672;28;20118;-70
2023/01/21 07:46:07;;;;;;;63.78;22.27;;;;;;;-1.86;68.62;99879.47;5237112;28;20169;-72
2023/01/21 07:48:57;;;;;;;53.78;22.20;;;;;;;-1.80;68.85;99891.47;5240967;28;20098;-70
2023/01/21 07:51:48;;;;;;;51.78;20.80;;;;;;;-1.64;69.31;99894.47;5240301;28;20098;-70
2023/01/21 07:54:38;;;;;;;57.83;21.58;;;;;;;-1.51;69.07;99895.81;5243135;28;20319;-69
2023/01/21 07:57:28;;;;;;;58.80;21.42;;;;;;;-1.50;68.27;99885.34;5240571;28;20056;-68
2023/01/21 08:00:18;;;;;;;54.63;19.05;;;;;;;-1.36;68.21;99891.88;5234752;28;20060;-69
2023/01/21 08:03:09;;;;;;;61.97;22.50;;;;;;;-1.35;68.15;99883.19;5239247;28;20102;-72
2023/01/21 08:05:59;;;;;;;55.40;21.00;;;;;;;-1.36;68.10;99882.31;5235525;28;20060;-69
2023/01/21 08:08:49;;;;;;;70.85;22.60;;;;;;;-1.14;68.00;99884.25;5236751;28;20579;-70
2023/01/21 08:11:41;;;;;;;63.67;21.58;;;;;;;-1.06;68.29;99880.53;5256057;28;20474;-70
2023/01/21 08:14:32;;;;;;;61.40;21.25;;;;;;;-0.96;68.28;99887.13;5241487;28;20059;-69
2023/01/21 08:17:22;;;;;;;56.63;21.08;;;;;;;-0.98;67.88;99883.72;5244632;28;20052;-71
2023/01/21 08:20:13;;;;;;;56.00;22.13;;;;;;;-0.89;67.74;99884.31;5246748;28;20141;-67
2023/01/21 08:23:03;;;;;;;52.42;20.75;;;;;;;-0.77;68.12;99876.09;5245563;28;20053;-69
2023/01/21 08:25:53;;;;;;;60.38;21.05;;;;;;;-0.67;68.02;99887.91;5244378;28;20044;-69
2023/01/21 08:28:44;;;;;;;52.97;20.70;;;;;;;-0.54;68.17;99896.16;5244981;28;20052;-67
2023/01/21 08:31:35;;;;;;;54.60;20.83;;;;;;;-0.48;67.37;99888.16;5260241;28;20056;-69
2023/01/21 08:34:25;;;;;;;55.97;20.52;;;;;;;-0.53;68.42;99885.72;5248886;28;20053;-68
2023/01/21 08:37:16;;;;;;;57.25;21.13;;;;;;;-0.50;67.22;99888.22;5245608;28;20058;-72
2023/01/21 08:40:07;;;;;;;57.38;21.23;;;;;;;-0.29;67.32;99884.00;5243816;28;20048;-68
2023/01/21 08:42:58;;;;;;;62.33;21.83;;;;;;;-0.26;67.04;99885.66;5243323;28;20129;-67
2023/01/21 08:45:48;;;;;;;55.28;22.23;;;;;;;-0.47;68.25;99884.63;5243441;28;20121;-70
2023/01/21 08:48:39;;;;;;;53.65;21.33;;;;;;;-0.33;68.17;99886.75;5241524;28;20205;-68
2023/01/21 08:51:29;;;;;;;61.00;21.95;;;;;;;-0.19;67.55;99883.69;5241760;28;20048;-69
2023/01/21 08:54:19;;;;;;;52.08;21.10;;;;;;;-0.32;67.20;99858.06;5245242;28;20165;-70
2023/01/21 08:57:09;;;;;;;60.78;21.88;;;;;;;0.08;67.95;99887.06;5242570;28;20064;-69
2023/01/21 08:59:59;;;;;;;49.10;20.45;;;;;;;-0.48;69.19;99883.78;5244595;28;20452;-69
2023/01/21 09:02:50;;;;;;;57.88;20.38;;;;;;;-0.36;68.70;99892.09;5244637;28;20053;-68
2023/01/21 09:05:40;;;;;;;52.83;20.05;;;;;;;-0.20;68.56;99898.44;5257415;28;20135;-69
2023/01/21 09:08:31;;;;;;;61.05;20.60;;;;;;;-0.36;68.70;99894.72;5245868;28;20147;-69
2023/01/21 09:11:21;;;;;;;49.75;19.67;;;;;;;-0.06;66.81;99880.59;5244211;28;20118;-69
2023/01/21 09:14:11;;;;;;;50.85;20.15;;;;;;;-0.57;68.89;99896.28;5245906;28;20055;-67
2023/01/21 09:17:01;;;;;;;53.38;19.98;;;;;;;-0.42;69.70;99887.94;5239916;28;20059;-67
2023/01/21 09:19:51;;;;;;;60.30;21.63;;;;;;;0.09;66.64;99893.97;5243689;28;20056;-68
2023/01/21 09:22:44;;;;;;;56.40;21.15;;;;;;;0.35;65.92;99886.03;5244144;28;20051;-69
2023/01/21 09:25:35;;;;;;;51.40;19.85;;;;;;;0.25;66.09;99879.47;5244508;28;20041;-68
2023/01/21 09:28:25;;;;;;;55.97;20.90;;;;;;;0.29;67.06;99901.06;5242896;28;20506;-70
2023/01/21 09:31:17;;;;;;;53.95;21.33;;;;;;;0.20;67.14;99881.41;5246130;28;20064;-69
2023/01/21 09:34:10;;;;;;;55.95;19.98;;;;;;;0.52;66.77;99910.63;5233610;28;20113;-71
2023/01/21 09:37:01;;;;;;;56.38;21.50;;;;;;;0.81;66.98;99909.53;5249859;28;20511;-69
2023/01/21 09:39:52;;;;;;;49.13;19.23;;;;;;;-0.63;69.47;99915.59;5261071;28;20078;-68
2023/01/21 09:42:42;;;;;;;54.90;19.58;;;;;;;-0.50;69.99;99921.22;5253855;28;20055;-69
2023/01/21 09:45:32;;;;;;;49.25;20.33;;;;;;;0.17;69.22;99918.03;5245933;28;20049;-69
2023/01/21 09:48:35;;;;;;;50.53;20.25;;;;;;;0.70;66.18;99916.00;5247509;28;20182;-68
2023/01/21 09:51:40;;;;;;;52.42;21.02;;;;;;;0.59;66.72;99932.97;5258762;28;20062;-68
2023/01/21 09:54:32;;;;;;;57.50;20.88;;;;;;;0.49;67.29;99934.22;5240145;28;20051;-69
2023/01/21 09:58:00;;;;;;;50.58;20.40;;;;;;;1.09;66.79;99924.94;5253661;28;20053;-68
2023/01/21 10:01:01;;;;;;;53.08;19.98;;;;;;;0.76;65.97;99924.50;5248015;28;20158;-69
2023/01/21 10:04:00;;;;;;;46.30;17.27;;;;;;;0.58;65.81;99926.06;5260455;28;20059;-69
2023/01/21 10:07:22;;;;;;;40.22;17.58;;;;;;;0.11;66.64;99929.50;5252767;28;20105;-69
2023/01/21 10:10:27;;;;;;;37.78;17.08;;;;;;;0.62;66.63;99923.25;5229964;28;20145;-69
2023/01/21 10:13:33;;;;;;;51.88;19.10;;;;;;;0.97;65.45;99928.91;5244448;28;20076;-69
2023/01/21 10:16:38;;;;;;;48.22;18.63;;;;;;;1.02;65.94;99923.47;5249211;28;20112;-69
2023/01/21 10:19:54;;;;;;;44.85;17.15;;;;;;;1.21;64.90;99918.38;5253954;28;20055;-69
2023/01/21 10:22:58;;;;;;;46.28;17.67;;;;;;;1.40;64.99;99908.88;5239707;28;20164;-68
2023/01/21 10:25:49;;;;;;;45.60;17.92;;;;;;;1.12;65.71;99909.13;5247627;28;20135;-69
2023/01/21 10:28:43;;;;;;;40.92;16.70;;;;;;;0.77;66.47;99919.22;5249416;28;20089;-69
2023/01/21 10:31:37;;;;;;;;;;;;;;;0.63;67.45;99913.66;5242988;28;20403;-69
2023/01/21 10:34:30;;;;;;;40.55;16.63;;;;;;;0.89;67.21;99913.53;5231237;28;20069;-69
2023/01/21 10:37:33;;;;;;;41.05;17.10;;;;;;;0.31;67.46;99928.78;5251428;28;20059;-69
2023/01/21 10:40:44;;;;;;;43.28;17.55;;;;;;;0.31;66.50;99910.53;5232974;28;20509;-69
2023/01/21 10:43:43;;;;;;;37.67;16.02;;;;;;;0.47;67.29;99923.88;5246149;28;20051;-69
2023/01/21 10:46:42;;;;;;;44.28;16.85;;;;;;;0.44;67.90;99921.38;5246217;28;20052;-69
2023/01/21 10:50:08;;;;;;;39.53;15.65;;;;;;;0.35;67.19;99922.53;5248659;28;20113;-69
2023/01/21 10:53:00;;;;;;;38.15;15.73;;;;;;;0.24;68.21;99924.72;5238809;28;20149;-69
2023/01/21 10:56:14;;;;;;;38.93;17.23;;;;;;;0.35;66.56;99926.91;5245016;28;20057;-69
2023/01/21 10:59:15;;;;;;;43.17;15.90;;;;;;;0.49;67.57;99922.03;5241210;28;20537;-69
2023/01/21 11:02:08;;;;;;;39.25;16.05;;;;;;;0.77;66.61;99916.63;5253735;28;20058;-69
2023/01/21 11:05:01;;;;;;;;;;;;;;;0.64;67.50;99918.00;5248201;28;20045;-70
2023/01/21 11:07:52;;;;;;;37.85;14.60;;;;;;;0.40;65.92;99911.97;5246460;28;19924;-69
2023/01/21 11:10:44;;;;;;;38.90;15.40;;;;;;;0.49;67.53;99923.78;5244581;28;20417;-69
2023/01/21 11:13:34;;;;;;;35.05;15.82;;;;;;;0.20;67.66;99918.75;5233784;28;20134;-69
2023/01/21 11:16:44;;;;;;;36.88;16.00;;;;;;;-0.03;68.68;99911.75;5250846;28;20103;-69
2023/01/21 11:19:34;;;;;;;40.35;15.85;;;;;;;0.85;65.04;99901.50;5233396;28;20055;-69
2023/01/21 11:22:30;;;;;;;39.55;17.10;;;;;;;0.52;66.93;99908.88;5249540;28;20056;-69
2023/01/21 11:25:24;;;;;;;73.05;27.52;;;;;;;1.50;64.69;99909.34;5246288;28;20213;-69
2023/01/21 11:28:23;;;;;;;94.55;32.65;;;;;;;1.13;65.73;99901.25;5253612;28;20457;-68
2023/01/21 11:31:22;;;;;;;44.63;18.45;;;;;;;1.02;67.00;99899.97;5239256;28;20110;-68
2023/01/21 11:34:17;;;;;;;46.45;19.98;;;;;;;1.94;63.73;99901.34;5242965;28;20056;-68
2023/01/21 11:37:20;;;;;;;38.10;16.30;;;;;;;1.70;63.21;99896.28;5242938;28;20048;-69
2023/01/21 11:40:20;;;;;;;37.50;15.75;;;;;;;1.40;64.77;99891.44;5245710;28;20091;-69
2023/01/21 11:43:32;;;;;;;40.67;15.73;;;;;;;2.06;62.87;99882.50;5243949;28;20511;-69
2023/01/21 11:46:30;;;;;;;36.03;14.10;;;;;;;1.77;62.78;99882.00;5243205;28;20679;-69
2023/01/21 11:49:31;;;;;;;32.53;13.57;;;;;;;1.41;62.75;99880.06;5260393;28;20140;-69
2023/01/21 11:52:21;;;;;;;34.50;14.35;;;;;;;1.15;62.75;99878.50;5250647;28;20055;-69
2023/01/21 11:55:25;;;;;;;33.63;14.20;;;;;;;1.11;62.50;99829.09;5256231;28;20192;-68
2023/01/21 11:58:27;;;;;;;36.67;13.88;;;;;;;1.91;62.17;99883.19;5244208;28;20040;-69
2023/01/21 12:01:20;;;;;;;34.83;14.25;;;;;;;1.81;62.66;99886.19;5246170;28;20517;-70
2023/01/21 12:04:14;;;;;;;29.75;13.38;;;;;;;0.94;64.89;99864.56;5245056;28;20374;-70
2023/01/21 12:07:04;;;;;;;;;;;;;;;0.89;64.95;99882.22;5273118;28;20510;-69
2023/01/21 12:10:07;;;;;;;31.55;14.40;;;;;;;1.70;63.01;99870.13;5253166;28;20428;-70
2023/01/21 12:13:15;;;;;;;43.83;13.98;;;;;;;1.27;63.99;99871.94;5251766;28;20052;-69
2023/01/21 12:16:24;;;;;;;33.95;14.45;;;;;;;1.67;63.09;99872.88;5244029;28;20048;-69
2023/01/21 12:19:21;;;;;;;41.05;15.98;;;;;;;1.70;62.68;99835.28;5248314;28;20052;-69
2023/01/21 12:22:36;;;;;;;35.25;15.57;;;;;;;2.18;61.90;99871.47;5245089;28;20059;-70
2023/01/21 12:25:44;;;;;;;30.60;13.50;;;;;;;0.90;65.12;99851.72;5245167;28;20593;-70
2023/01/21 12:28:52;;;;;;;39.75;15.00;;;;;;;0.67;65.64;99852.63;5246833;28;20052;-69
2023/01/21 12:31:50;;;;;;;30.25;13.80;;;;;;;1.08;65.92;99865.78;5246780;28;20056;-69
2023/01/21 12:34:54;;;;;;;34.75;13.88;;;;;;;1.17;64.74;99860.19;5237130;28;20049;-70
2023/01/21 12:37:47;;;;;;;;;;;;;;;0.86;66.84;99866.66;5236435;28;20118;-70
2023/01/21 12:40:44;;;;;;;35.00;14.68;;;;;;;1.94;63.82;99869.97;5242136;28;19928;-69
2023/01/21 12:43:38;;;;;;;37.80;14.57;;;;;;;1.59;63.48;99872.34;5246411;28;20071;-70
2023/01/21 12:46:40;;;;;;;32.88;13.75;;;;;;;1.11;64.32;99860.44;5253079;28;20534;-69
2023/01/21 12:49:47;;;;;;;43.50;15.73;;;;;;;0.94;66.65;99864.56;5248202;28;20122;-70
2023/01/21 12:52:54;;;;;;;34.78;14.60;;;;;;;0.91;66.24;99866.47;5252238;28;20052;-69
2023/01/21 12:55:59;;;;;;;38.42;15.00;;;;;;;1.35;64.76;99869.00;5237791;28;20040;-70
2023/01/21 12:59:12;;;;;;;44.25;15.27;;;;;;;0.63;67.64;99864.09;5250817;28;20040;-69
2023/01/21 13:02:13;;;;;;;39.63;14.07;;;;;;;1.27;66.42;99860.66;5241474;28;20052;-69
2023/01/21 13:05:20;;;;;;;36.60;13.57;;;;;;;1.17;65.96;99863.63;5242850;28;20045;-70
2023/01/21 13:08:48;;;;;;;40.28;15.20;;;;;;;1.01;66.00;99869.56;5244150;28;20044;-70
2023/01/21 13:11:48;;;;;;;34.45;14.80;;;;;;;0.72;67.76;99871.56;5231948;28;20051;-69
2023/01/21 13:14:41;;;;;;;36.28;14.07;;;;;;;1.32;65.94;99869.97;5246737;28;20062;-69
2023/01/21 13:17:34;;;;;;;;;;;;;;;1.10;66.31;99869.19;5238869;28;20045;-69
2023/01/21 13:20:24;;;;;;;37.40;13.60;;;;;;;1.40;66.40;99859.22;5249574;28;19920;-69
2023/01/21 13:23:38;;;;;;;38.53;14.63;;;;;;;1.27;65.17;99861.50;5260212;28;20137;-70
2023/01/21 13:26:42;;;;;;;38.17;14.75;;;;;;;1.32;65.02;99869.97;5256154;28;20075;-70
2023/01/21 13:29:45;;;;;;;31.88;13.57;;;;;;;1.10;66.95;99870.03;5239994;28;20417;-70
2023/01/21 13:32:52;;;;;;;37.00;13.98;;;;;;;1.50;65.51;99878.81;5231925;28;20059;-69